Time;durP1;ratioP1;P1;durP2;ratioP2;P2;SDS_P1;SDS_P2;PMS_P1;PMS_P2;Temp;Humidity;BMP_temperature;BMP_pressure;BME280_temperature;BME280_humidity;BME280_pressure;Samples;Min_cycle;Max_cycle;Signal;HPM_P1;HPM_P2
2022/09/24 00:00:43;;;;;;;4.03;1.52;;;19.60;68.40;;;;;;5047033;28;20060;-57
2022/09/24 00:03:08;;;;;;;3.28;1.60;;;19.60;68.40;;;;;;5049912;28;20063;-57
2022/09/24 00:05:38;;;;;;;4.03;1.60;;;19.60;68.30;;;;;;5047427;28;20486;-56
2022/09/24 00:08:08;;;;;;;2.28;1.40;;;19.60;68.40;;;;;;5045722;28;20033;-57
2022/09/24 00:10:42;;;;;;;3.22;1.52;;;19.60;68.40;;;;;;5049636;28;20025;-57
2022/09/24 00:13:10;;;;;;;3.83;1.40;;;19.60;68.50;;;;;;5048050;28;20028;-57
2022/09/24 00:15:37;;;;;;;3.70;1.55;;;19.60;68.20;;;;;;5048148;28;20117;-56
2022/09/24 00:18:04;;;;;;;3.38;1.60;;;19.60;68.30;;;;;;5046298;28;20028;-57
2022/09/24 00:20:30;;;;;;;3.17;1.45;;;19.60;68.30;;;;;;5047376;28;20060;-57
2022/09/24 00:22:56;;;;;;;3.67;1.40;;;19.60;68.40;;;;;;5046357;28;20455;-56
2022/09/24 00:28:06;;;;;;;4.10;1.63;;;19.60;68.30;;;;;;5046138;28;20091;-57
2022/09/24 00:30:32;;;;;;;3.40;1.35;;;19.60;68.30;;;;;;5047639;28;20021;-56
2022/09/24 00:32:57;;;;;;;4.18;1.50;;;19.60;68.30;;;;;;5047575;28;20082;-56
2022/09/24 00:35:24;;;;;;;5.70;1.60;;;19.60;68.30;;;;;;5045336;28;20020;-57
2022/09/24 00:37:49;;;;;;;3.17;1.38;;;19.60;68.20;;;;;;5046295;28;20037;-57
2022/09/24 00:40:15;;;;;;;3.22;1.40;;;19.60;68.20;;;;;;5046916;28;20120;-57
2022/09/24 00:42:40;;;;;;;4.15;1.40;;;19.60;68.20;;;;;;5046868;28;20052;-57
2022/09/24 00:45:08;;;;;;;2.72;1.40;;;19.60;68.20;;;;;;5047995;28;20033;-57
2022/09/24 00:47:38;;;;;;;3.30;1.40;;;19.60;68.20;;;;;;5047063;28;20023;-56
2022/09/24 00:50:16;;;;;;;3.90;1.50;;;19.60;68.20;;;;;;5046076;28;20491;-57
2022/09/24 00:52:48;;;;;;;3.03;1.38;;;19.60;68.20;;;;;;5044601;28;20029;-56
2022/09/24 00:55:14;;;;;;;2.83;1.23;;;19.60;68.20;;;;;;5046625;28;20032;-56
2022/09/24 00:57:40;;;;;;;4.45;1.65;;;19.60;68.20;;;;;;5047232;28;20028;-57
2022/09/24 01:00:06;;;;;;;3.28;1.42;;;19.60;68.30;;;;;;5046705;28;20056;-56
2022/09/24 01:02:34;;;;;;;2.70;1.38;;;19.60;68.30;;;;;;5046619;28;20112;-57
2022/09/24 01:04:59;;;;;;;3.60;1.35;;;19.60;68.30;;;;;;5046677;28;20523;-57
2022/09/24 01:07:25;;;;;;;2.28;1.23;;;19.60;68.30;;;;;;5046689;28;20029;-57
2022/09/24 01:09:51;;;;;;;1.88;1.20;;;19.50;68.40;;;;;;5048052;28;20067;-57
2022/09/24 01:12:36;;;;;;;3.22;1.40;;;19.60;68.30;;;;;;5046061;28;20021;-56
2022/09/24 01:15:05;;;;;;;3.42;1.40;;;19.50;68.30;;;;;;5046067;28;20435;-57
2022/09/24 01:17:49;;;;;;;2.67;1.20;;;19.60;68.40;;;;;;5046839;28;20082;-56
2022/09/24 01:20:33;;;;;;;4.60;1.30;;;19.60;68.30;;;;;;5047535;28;20055;-56
2022/09/24 01:23:17;;;;;;;3.53;1.20;;;19.50;68.20;;;;;;5042213;28;20029;-57
2022/09/24 01:26:01;;;;;;;3.20;1.60;;;19.50;68.20;;;;;;5043315;28;20118;-57
2022/09/24 01:28:35;;;;;;;2.53;1.27;;;19.50;68.30;;;;;;5044181;28;20048;-56
2022/09/24 01:31:14;;;;;;;4.35;1.27;;;19.50;68.50;;;;;;5070991;28;20375;-57
2022/09/24 01:33:40;;;;;;;2.80;1.35;;;19.60;68.30;;;;;;5045797;28;20037;-57
2022/09/24 01:36:07;;;;;;;2.67;1.20;;;19.50;68.40;;;;;;5069199;28;20034;-56
2022/09/24 01:38:40;;;;;;;2.97;1.40;;;19.50;68.50;;;;;;5045739;28;20032;-56
2022/09/24 01:41:07;;;;;;;2.28;1.38;;;19.50;68.50;;;;;;5043479;28;20032;-57
2022/09/24 01:43:32;;;;;;;2.80;1.35;;;19.50;68.50;;;;;;5046201;28;20029;-56
2022/09/24 01:46:00;;;;;;;3.03;1.38;;;19.50;68.30;;;;;;5046065;28;20092;-57
2022/09/24 01:48:25;;;;;;;1.27;1.13;;;19.50;68.30;;;;;;5045395;28;20033;-56
2022/09/24 01:51:12;;;;;;;2.08;1.10;;;19.50;68.50;;;;;;5044266;28;20017;-56
2022/09/24 01:54:06;;;;;;;3.80;1.48;;;19.50;68.50;;;;;;5044387;28;20083;-57
2022/09/24 01:56:46;;;;;;;3.10;1.38;;;19.50;68.40;;;;;;5044332;28;20454;-56
2022/09/24 01:59:21;;;;;;;3.20;1.50;;;19.50;68.50;;;;;;5054837;28;20476;-56
2022/09/24 02:02:18;;;;;;;3.15;1.48;;;19.50;68.40;;;;;;5044762;28;20021;-57
2022/09/24 02:04:46;;;;;;;3.15;1.50;;;19.50;68.60;;;;;;4988973;28;20180;-57
2022/09/24 02:07:20;;;;;;;3.70;1.35;;;19.50;68.60;;;;;;5004469;28;20167;-57
2022/09/24 02:09:46;;;;;;;3.90;1.33;;;19.50;68.50;;;;;;5009608;28;20065;-57
2022/09/24 02:12:51;;;;;;;3.08;1.40;;;19.50;68.50;;;;;;5005724;28;20383;-56
2022/09/24 02:15:24;;;;;;;2.28;1.23;;;19.50;68.50;;;;;;4945128;29;20124;-56
2022/09/24 02:17:53;;;;;;;4.68;1.45;;;19.50;68.50;;;;;;4945485;28;20043;-56
2022/09/24 02:20:20;;;;;;;2.42;1.15;;;19.50;68.60;;;;;;4947294;28;20131;-57
2022/09/24 02:22:46;;;;;;;2.92;1.30;;;19.40;68.50;;;;;;4947063;29;20122;-56
2022/09/24 02:25:13;;;;;;;3.63;1.52;;;19.50;68.50;;;;;;4930660;29;20866;-56
2022/09/24 02:27:39;;;;;;;4.05;1.40;;;19.50;68.50;;;;;;4931267;29;20117;-57
2022/09/24 02:30:07;;;;;;;1.98;1.10;;;19.50;68.40;;;;;;4944991;28;20050;-56
2022/09/24 02:32:33;;;;;;;2.72;1.27;;;19.50;68.50;;;;;;4946587;28;20124;-56
2022/09/24 02:35:03;;;;;;;2.30;1.27;;;19.50;68.50;;;;;;4946883;29;20043;-57
2022/09/24 02:37:33;;;;;;;3.58;1.40;;;19.50;68.50;;;;;;4930129;29;20471;-56
2022/09/24 02:39:58;;;;;;;2.92;1.30;;;19.50;68.50;;;;;;4930938;29;20043;-57
2022/09/24 02:42:24;;;;;;;2.15;1.20;;;19.40;68.50;;;;;;4980915;28;20065;-57
2022/09/24 02:44:51;;;;;;;2.97;1.30;;;19.40;68.50;;;;;;4984971;28;20090;-56
2022/09/24 02:47:17;;;;;;;2.08;1.40;;;19.40;68.50;;;;;;4983136;28;20030;-57
2022/09/24 02:49:43;;;;;;;5.43;1.40;;;19.40;68.50;;;;;;5027697;28;20044;-57
2022/09/24 02:52:09;;;;;;;2.97;1.40;;;19.40;68.50;;;;;;5046203;28;20486;-57
2022/09/24 02:54:34;;;;;;;3.85;1.63;;;19.40;68.50;;;;;;5045593;28;20100;-57
2022/09/24 02:57:00;;;;;;;2.97;1.30;;;19.40;68.50;;;;;;5044904;28;20040;-57
2022/09/24 02:59:26;;;;;;;2.88;1.33;;;19.40;68.50;;;;;;5045450;28;20049;-56
2022/09/24 03:01:51;;;;;;;4.07;1.30;;;19.40;68.50;;;;;;5045992;28;20056;-56
2022/09/24 03:04:17;;;;;;;4.10;1.30;;;19.40;68.50;;;;;;5043094;28;20028;-56
2022/09/24 03:06:43;;;;;;;2.25;1.15;;;19.40;68.50;;;;;;5046685;28;20481;-56
2022/09/24 03:09:11;;;;;;;3.72;1.40;;;19.40;68.40;;;;;;5050904;28;20074;-57
2022/09/24 03:11:37;;;;;;;2.22;1.38;;;19.40;68.50;;;;;;5047155;28;20113;-57
2022/09/24 03:14:03;;;;;;;2.58;1.00;;;19.40;68.30;;;;;;5049133;28;20079;-57
2022/09/24 03:16:28;;;;;;;4.80;1.50;;;19.40;68.40;;;;;;5049492;28;20529;-57
2022/09/24 03:18:54;;;;;;;2.40;1.20;;;19.40;68.50;;;;;;5049491;28;20036;-56
2022/09/24 03:21:21;;;;;;;2.70;1.10;;;19.40;68.40;;;;;;5046410;28;20033;-56
2022/09/24 03:23:46;;;;;;;2.42;1.30;;;19.40;68.40;;;;;;5050310;28;20040;-57
2022/09/24 03:26:12;;;;;;;2.92;1.30;;;19.40;68.50;;;;;;5049919;28;20523;-56
2022/09/24 03:28:38;;;;;;;1.60;1.08;;;19.40;68.40;;;;;;5049030;28;20057;-57
2022/09/24 03:31:04;;;;;;;2.38;1.35;;;19.40;68.30;;;;;;5049429;28;20028;-57
2022/09/24 03:33:35;;;;;;;1.73;1.08;;;19.40;68.40;;;;;;5071242;28;20029;-56
2022/09/24 03:36:08;;;;;;;2.40;1.10;;;19.30;68.20;;;;;;5049257;28;20020;-56
2022/09/24 03:38:34;;;;;;;3.00;1.30;;;19.30;68.20;;;;;;5045653;28;20041;-56
2022/09/24 03:40:59;;;;;;;2.97;1.30;;;19.30;68.50;;;;;;5048666;28;20397;-57
2022/09/24 03:43:25;;;;;;;3.83;1.40;;;19.40;68.40;;;;;;5049231;28;20032;-56
2022/09/24 03:45:51;;;;;;;2.08;1.10;;;19.30;68.40;;;;;;5048816;28;20152;-56
2022/09/24 03:48:18;;;;;;;2.28;1.20;;;19.30;68.30;;;;;;5048768;28;20029;-56
2022/09/24 03:50:44;;;;;;;3.00;1.10;;;19.30;68.30;;;;;;5045564;28;20040;-57
2022/09/24 03:53:10;;;;;;;2.78;1.10;;;19.30;68.30;;;;;;5048776;28;20032;-56
2022/09/24 03:55:42;;;;;;;3.05;1.17;;;19.30;68.50;;;;;;5051168;28;20013;-57
2022/09/24 03:58:08;;;;;;;2.30;1.00;;;19.30;68.50;;;;;;5046877;28;20532;-57
2022/09/24 04:00:35;;;;;;;2.00;1.10;;;19.30;68.30;;;;;;5082624;28;20040;-56
2022/09/24 04:03:01;;;;;;;2.33;1.05;;;19.30;68.50;;;;;;5049476;28;20041;-57
2022/09/24 04:05:28;;;;;;;3.50;1.27;;;19.30;68.50;;;;;;5049738;28;20496;-56
2022/09/24 04:07:54;;;;;;;1.50;1.05;;;19.30;68.40;;;;;;5048902;28;20528;-57
2022/09/24 04:10:20;;;;;;;2.40;1.10;;;19.30;68.50;;;;;;5046710;28;20056;-56
2022/09/24 04:12:46;;;;;;;3.65;1.20;;;19.30;68.40;;;;;;5048868;28;20029;-56
2022/09/24 04:15:11;;;;;;;3.65;1.00;;;19.30;68.30;;;;;;5049326;28;20509;-57
2022/09/24 04:17:37;;;;;;;2.75;1.10;;;19.30;68.40;;;;;;5050047;28;20035;-56
2022/09/24 04:20:04;;;;;;;2.15;1.20;;;19.30;68.30;;;;;;5048310;28;20032;-56
2022/09/24 04:22:30;;;;;;;1.80;1.10;;;19.30;68.40;;;;;;5047867;28;20037;-56
2022/09/24 04:24:56;;;;;;;3.67;1.45;;;19.30;69.40;;;;;;5051530;28;20086;-56
2022/09/24 04:27:22;;;;;;;2.72;1.10;;;19.30;68.30;;;;;;5047699;28;20036;-56
2022/09/24 04:29:47;;;;;;;3.85;1.27;;;19.30;68.40;;;;;;5048438;28;20029;-57
2022/09/24 04:32:15;;;;;;;2.33;1.08;;;19.30;68.30;;;;;;5053441;28;20025;-56
2022/09/24 04:34:41;;;;;;;3.15;1.40;;;19.30;68.40;;;;;;5048599;28;20479;-56
2022/09/24 04:37:08;;;;;;;2.60;1.00;;;19.30;68.40;;;;;;5051598;28;20103;-56
2022/09/24 04:39:34;;;;;;;2.40;1.02;;;19.30;68.30;;;;;;5046294;28;20574;-56
2022/09/24 04:42:00;;;;;;;1.95;1.05;;;19.30;68.30;;;;;;5043556;28;20029;-56
2022/09/24 04:44:27;;;;;;;1.80;1.00;;;19.30;68.50;;;;;;5049397;28;20032;-56
2022/09/24 04:46:54;;;;;;;2.85;0.95;;;19.20;68.30;;;;;;5047407;28;20025;-56
2022/09/24 04:49:19;;;;;;;3.42;1.30;;;19.30;68.40;;;;;;5049103;28;20033;-56
2022/09/24 04:51:46;;;;;;;2.53;1.20;;;19.30;68.50;;;;;;5047807;28;20095;-56
2022/09/24 04:54:11;;;;;;;3.00;0.95;;;19.20;68.50;;;;;;5048710;28;20481;-56
2022/09/24 04:56:37;;;;;;;1.42;0.95;;;19.20;68.60;;;;;;5051803;28;20505;-56
2022/09/24 04:59:03;;;;;;;2.10;1.20;;;19.20;68.50;;;;;;5029321;28;20056;-56
2022/09/24 05:01:29;;;;;;;3.20;1.27;;;19.30;68.60;;;;;;5049498;28;20079;-56
2022/09/24 05:03:55;;;;;;;4.03;1.30;;;19.20;68.60;;;;;;5052867;28;20029;-56
2022/09/24 05:06:20;;;;;;;2.72;1.10;;;19.20;68.50;;;;;;5046803;28;20083;-56
2022/09/24 05:08:46;;;;;;;2.05;1.02;;;19.20;69.60;;;;;;5046631;28;20033;-56
2022/09/24 05:11:11;;;;;;;2.92;1.10;;;19.30;68.60;;;;;;5047054;28;20025;-56
2022/09/24 05:13:37;;;;;;;1.70;1.02;;;19.20;68.50;;;;;;5050659;28;20056;-56
2022/09/24 05:16:03;;;;;;;2.47;1.00;;;19.30;68.60;;;;;;5048945;28;20066;-56
2022/09/24 05:18:28;;;;;;;2.75;1.10;;;19.20;68.50;;;;;;5051272;28;20029;-56
2022/09/24 05:20:55;;;;;;;2.78;1.08;;;19.20;68.50;;;;;;5048117;28;20025;-56
2022/09/24 05:23:20;;;;;;;3.70;1.20;;;19.30;68.60;;;;;;5048593;28;20036;-56
2022/09/24 05:28:32;;;;;;;2.22;1.20;;;19.20;68.50;;;;;;5042461;28;20117;-56
2022/09/24 05:30:58;;;;;;;2.85;1.17;;;19.30;68.50;;;;;;5047429;28;20039;-56
2022/09/24 05:33:24;;;;;;;2.15;1.02;;;19.30;68.50;;;;;;5044639;28;20029;-56
2022/09/24 05:35:56;;;;;;;2.35;1.10;;;19.20;68.60;;;;;;5041306;28;20492;-56
2022/09/24 05:38:23;;;;;;;3.17;1.15;;;19.30;68.60;;;;;;5039988;28;20078;-56
2022/09/24 05:40:49;;;;;;;2.20;1.00;;;19.30;68.50;;;;;;5043309;28;20043;-56
2022/09/24 05:43:15;;;;;;;2.28;1.10;;;19.20;68.50;;;;;;5042408;28;20029;-55
2022/09/24 05:45:43;;;;;;;3.05;1.00;;;19.30;68.50;;;;;;5041507;28;20029;-56
2022/09/24 05:48:09;;;;;;;3.40;1.10;;;19.20;68.50;;;;;;5039915;28;20032;-56
2022/09/24 05:50:34;;;;;;;2.70;1.10;;;19.20;68.50;;;;;;5039311;28;20033;-56
2022/09/24 05:53:01;;;;;;;3.47;1.02;;;19.20;68.50;;;;;;5042613;28;20023;-56
2022/09/24 05:55:27;;;;;;;1.40;0.80;;;19.20;68.50;;;;;;5039520;28;20091;-56
2022/09/24 05:57:52;;;;;;;3.03;1.00;;;19.20;68.50;;;;;;5037745;28;20033;-56
2022/09/24 06:00:18;;;;;;;2.65;1.27;;;19.20;68.50;;;;;;5039044;28;20046;-56
2022/09/24 06:02:44;;;;;;;1.92;1.08;;;19.20;68.50;;;;;;5034355;28;20490;-56
2022/09/24 06:05:10;;;;;;;3.10;1.17;;;19.20;68.50;;;;;;5039857;28;20057;-56
2022/09/24 06:07:36;;;;;;;2.78;1.08;;;19.20;68.50;;;;;;5042884;28;20405;-56
2022/09/24 06:10:01;;;;;;;2.13;1.10;;;19.20;68.50;;;;;;5041525;28;20040;-56
2022/09/24 06:12:27;;;;;;;3.42;1.38;;;19.20;68.50;;;;;;5042693;28;20025;-56
2022/09/24 06:14:53;;;;;;;1.75;1.10;;;19.20;68.40;;;;;;5046336;28;20031;-55
2022/09/24 06:17:19;;;;;;;2.97;1.10;;;19.20;68.50;;;;;;5044460;28;20094;-56
2022/09/24 06:19:46;;;;;;;1.45;1.00;;;19.20;68.40;;;;;;5041858;28;20037;-56
2022/09/24 06:22:12;;;;;;;2.47;1.13;;;19.20;68.40;;;;;;5044555;28;20036;-56
2022/09/24 06:24:38;;;;;;;2.78;1.17;;;19.20;68.50;;;;;;5046464;28;20037;-56
2022/09/24 06:27:04;;;;;;;3.17;1.33;;;19.20;68.40;;;;;;5045328;28;20123;-56
2022/09/24 06:29:30;;;;;;;2.58;1.00;;;19.20;68.50;;;;;;5047000;28;20112;-56
2022/09/24 06:31:56;;;;;;;3.42;1.00;;;19.20;68.40;;;;;;5047413;28;20485;-56
2022/09/24 06:34:22;;;;;;;1.95;1.00;;;19.20;68.40;;;;;;5045691;28;20512;-56
2022/09/24 06:36:47;;;;;;;2.67;1.02;;;19.20;68.40;;;;;;5047253;28;20036;-56
2022/09/24 06:39:13;;;;;;;2.50;1.10;;;19.10;68.40;;;;;;5040527;28;20037;-56
2022/09/24 06:41:39;;;;;;;3.67;1.25;;;19.20;68.40;;;;;;5046337;28;20040;-57
2022/09/24 06:44:04;;;;;;;2.28;1.00;;;19.20;68.40;;;;;;5049382;28;20089;-56
2022/09/24 06:46:30;;;;;;;1.88;1.08;;;19.20;68.40;;;;;;5045726;28;20077;-56
2022/09/24 06:48:55;;;;;;;2.38;1.00;;;19.20;68.40;;;;;;5046584;28;20040;-56
2022/09/24 06:51:22;;;;;;;1.80;1.05;;;19.20;68.40;;;;;;5046835;28;20029;-56
2022/09/24 06:53:52;;;;;;;3.15;1.10;;;19.20;67.80;;;;;;5045485;28;20040;-56
2022/09/24 06:56:18;;;;;;;1.50;1.10;;;19.20;68.40;;;;;;5041993;28;20112;-56
2022/09/24 06:58:44;;;;;;;2.70;1.15;;;19.10;68.30;;;;;;5051681;28;20021;-57
2022/09/24 07:01:09;;;;;;;1.88;1.08;;;19.20;68.40;;;;;;5045633;28;20561;-56
2022/09/24 07:03:37;;;;;;;1.50;1.10;;;19.20;68.40;;;;;;5047437;28;20056;-56
2022/09/24 07:06:04;;;;;;;2.33;1.02;;;19.20;68.40;;;;;;5042532;28;20183;-56
2022/09/24 07:08:29;;;;;;;1.90;1.00;;;19.10;68.30;;;;;;5038876;28;20036;-57
2022/09/24 07:10:55;;;;;;;2.65;0.98;;;19.10;68.40;;;;;;5041072;28;20029;-57
2022/09/24 07:13:21;;;;;;;5.88;1.08;;;19.20;68.60;;;;;;5042175;28;20441;-57
2022/09/24 07:15:47;;;;;;;6.40;1.30;;;19.10;68.50;;;;;;5037567;28;20079;-57
2022/09/24 07:18:13;;;;;;;5.43;1.10;;;19.20;68.50;;;;;;5039396;28;20048;-57
2022/09/24 07:20:38;;;;;;;5.15;1.17;;;19.20;68.50;;;;;;5044622;28;20075;-57
2022/09/24 07:23:05;;;;;;;3.90;1.17;;;19.20;68.60;;;;;;5043140;28;20022;-57
2022/09/24 07:25:31;;;;;;;7.57;1.10;;;19.20;68.60;;;;;;5045451;28;20033;-57
2022/09/24 07:28:01;;;;;;;5.88;1.30;;;19.20;68.90;;;;;;5045568;28;20070;-57
2022/09/24 07:30:27;;;;;;;8.52;1.13;;;19.20;69.20;;;;;;5049732;28;20128;-57
2022/09/24 07:32:56;;;;;;;8.05;1.30;;;19.30;69.80;;;;;;5045721;28;20104;-57
2022/09/24 07:35:22;;;;;;;8.02;1.33;;;19.30;69.90;;;;;;5069553;28;20035;-57
2022/09/24 07:37:48;;;;;;;3.65;1.23;;;19.30;69.90;;;;;;5043503;28;20021;-57
2022/09/24 07:40:13;;;;;;;12.20;1.63;;;19.30;69.80;;;;;;5043674;28;20040;-56
2022/09/24 07:42:48;;;;;;;5.22;1.20;;;19.30;69.90;;;;;;5041613;28;20045;-57
2022/09/24 07:45:16;;;;;;;5.38;1.70;;;19.30;69.70;;;;;;5044371;28;20037;-57
2022/09/24 07:47:41;;;;;;;5.60;1.50;;;19.30;69.90;;;;;;5045931;28;20037;-58
2022/09/24 07:50:07;;;;;;;3.92;1.30;;;19.30;70.10;;;;;;5042744;28;20403;-56
2022/09/24 07:52:34;;;;;;;8.52;1.42;;;19.30;70.30;;;;;;5047968;28;20390;-57
2022/09/24 07:55:00;;;;;;;6.63;1.60;;;19.40;70.20;;;;;;5052715;28;20029;-57
2022/09/24 07:57:26;;;;;;;3.53;1.27;;;19.40;70.30;;;;;;5050461;28;20904;-57
2022/09/24 07:59:52;;;;;;;4.68;1.25;;;19.40;70.30;;;;;;5050372;28;20053;-56
2022/09/24 08:02:19;;;;;;;5.60;1.58;;;19.40;70.20;;;;;;5047285;28;20040;-56
2022/09/24 08:04:45;;;;;;;8.05;1.30;;;19.40;70.30;;;;;;5044065;28;20036;-57
2022/09/24 08:07:12;;;;;;;6.40;1.45;;;19.40;70.30;;;;;;5050476;28;20028;-57
2022/09/24 08:09:38;;;;;;;5.28;1.42;;;19.50;70.30;;;;;;5048479;28;20418;-56
2022/09/24 08:12:06;;;;;;;4.05;1.40;;;19.50;70.10;;;;;;5054157;28;20043;-56
2022/09/24 08:14:31;;;;;;;6.00;1.45;;;19.50;69.90;;;;;;5045375;28;20045;-56
2022/09/24 08:16:57;;;;;;;5.43;1.48;;;19.50;69.80;;;;;;5048548;28;20043;-57
2022/09/24 08:19:23;;;;;;;6.97;1.73;;;19.50;69.90;;;;;;5047888;28;20072;-57
2022/09/24 08:21:49;;;;;;;12.57;2.05;;;19.50;69.90;;;;;;5048111;28;20508;-57
2022/09/24 08:24:16;;;;;;;3.92;1.42;;;19.50;69.80;;;;;;5049477;28;20025;-57
2022/09/24 08:26:43;;;;;;;5.88;1.38;;;19.60;70.00;;;;;;5047458;28;20036;-57
2022/09/24 08:29:11;;;;;;;5.50;1.20;;;19.50;69.80;;;;;;5047806;28;20066;-58
2022/09/24 08:31:36;;;;;;;5.80;1.40;;;19.50;69.80;;;;;;5047272;28;20021;-57
2022/09/24 08:34:05;;;;;;;5.25;1.52;;;19.60;69.80;;;;;;5048002;28;20533;-57
2022/09/24 08:36:34;;;;;;;5.38;1.40;;;19.50;69.80;;;;;;5047359;28;20029;-56
2022/09/24 08:39:00;;;;;;;8.43;2.03;;;19.60;69.80;;;;;;5048410;28;20132;-57
2022/09/24 08:41:32;;;;;;;6.65;1.52;;;19.60;69.80;;;;;;5051301;28;20762;-57
2022/09/24 08:47:40;;;;;;;9.25;1.70;;;19.60;69.80;;;;;;5045494;28;20397;-57
2022/09/24 08:50:26;;;;;;;11.30;1.45;;;19.50;69.60;;;;;;5047029;28;20024;-57
2022/09/24 08:53:05;;;;;;;7.43;1.45;;;19.50;70.70;;;;;;5043861;28;20017;-57
2022/09/24 08:55:43;;;;;;;6.63;1.60;;;19.50;69.70;;;;;;5048458;28;20016;-57
2022/09/24 08:58:47;;;;;;;5.43;1.40;;;19.60;69.70;;;;;;5045980;28;20052;-57
2022/09/24 09:01:28;;;;;;;7.30;1.50;;;19.60;69.70;;;;;;5006721;28;20038;-57
2022/09/24 09:04:04;;;;;;;6.25;1.27;;;19.50;69.50;;;;;;4990177;28;20053;-57
2022/09/24 09:06:57;;;;;;;6.43;1.40;;;19.50;69.50;;;;;;4990164;28;21126;-57
2022/09/24 09:09:43;;;;;;;5.32;1.20;;;19.50;69.50;;;;;;5007903;28;20037;-57
2022/09/24 09:12:24;;;;;;;6.78;1.42;;;19.60;69.40;;;;;;4988752;28;20022;-56
2022/09/24 09:15:21;;;;;;;9.02;1.50;;;19.60;69.40;;;;;;4990797;28;20560;-57
2022/09/24 09:17:57;;;;;;;6.38;1.40;;;19.60;69.40;;;;;;5010320;28;20040;-58
2022/09/24 09:20:38;;;;;;;9.43;1.67;;;19.60;69.30;;;;;;4986375;28;20046;-57
2022/09/24 09:23:19;;;;;;;7.32;1.38;;;19.60;69.20;;;;;;4993321;28;20120;-57
2022/09/24 09:25:51;;;;;;;7.13;1.50;;;19.60;69.20;;;;;;5003291;28;20033;-57
2022/09/24 09:28:17;;;;;;;12.88;3.10;;;19.60;69.00;;;;;;4987021;28;20100;-57
2022/09/24 09:30:59;;;;;;;9.45;2.80;;;19.70;68.90;;;;;;5005182;28;20624;-57
2022/09/24 09:33:32;;;;;;;12.05;2.42;;;19.70;68.80;;;;;;5003203;28;20026;-58
2022/09/24 09:36:33;;;;;;;10.32;2.13;;;19.70;68.70;;;;;;4994405;28;20045;-57
2022/09/24 09:38:59;;;;;;;9.93;2.50;;;19.80;68.80;;;;;;5041788;28;20032;-58
2022/09/24 09:41:33;;;;;;;10.80;2.13;;;19.80;69.00;;;;;;5041874;28;20398;-57
2022/09/24 09:44:00;;;;;;;7.38;2.15;;;19.80;68.90;;;;;;5042019;28;20032;-57
2022/09/24 09:46:32;;;;;;;9.75;2.58;;;19.80;68.90;;;;;;5043660;28;20022;-57
2022/09/24 09:49:00;;;;;;;8.15;2.30;;;19.80;69.00;;;;;;5033736;28;20030;-56
2022/09/24 09:51:26;;;;;;;9.10;2.20;;;19.90;69.10;;;;;;5029655;28;20022;-56
2022/09/24 09:53:56;;;;;;;9.98;2.08;;;19.90;69.00;;;;;;5050406;28;20426;-57
2022/09/24 09:56:31;;;;;;;15.43;1.92;;;19.90;69.00;;;;;;5047000;28;20029;-57
2022/09/24 09:59:12;;;;;;;10.65;2.00;;;19.90;68.90;;;;;;5049340;28;20053;-57
2022/09/24 10:01:55;;;;;;;9.73;1.95;;;19.90;69.00;;;;;;5048844;28;20072;-57
2022/09/24 10:04:38;;;;;;;7.72;1.73;;;19.90;68.90;;;;;;5044659;28;20427;-57
2022/09/24 10:07:11;;;;;;;7.53;1.80;;;20.00;68.80;;;;;;5043731;28;20036;-57
2022/09/24 10:09:37;;;;;;;8.95;2.25;;;19.90;68.80;;;;;;5045645;28;20124;-57
2022/09/24 10:12:21;;;;;;;7.68;2.00;;;20.00;68.80;;;;;;5052245;28;20080;-57
2022/09/24 10:14:58;;;;;;;10.02;2.05;;;20.00;68.70;;;;;;5042677;28;20048;-57
2022/09/24 10:17:35;;;;;;;6.45;1.95;;;20.00;68.60;;;;;;5041769;28;20032;-57
2022/09/24 10:20:06;;;;;;;7.38;1.92;;;20.00;68.60;;;;;;5025849;28;20269;-57
2022/09/24 10:22:31;;;;;;;6.65;1.70;;;20.00;68.60;;;;;;5038037;28;20024;-57
2022/09/24 10:24:58;;;;;;;9.32;2.10;;;20.10;68.40;;;;;;5045174;28;20027;-57
2022/09/24 10:27:30;;;;;;;8.23;2.00;;;20.10;68.20;;;;;;5038590;28;20024;-58
2022/09/24 10:32:40;;;;;;;11.02;1.90;;;20.20;68.30;;;;;;5036719;28;20044;-57
2022/09/24 10:35:19;;;;;;;7.22;1.70;;;20.20;68.20;;;;;;5039927;28;20041;-57
2022/09/24 10:37:56;;;;;;;10.55;2.53;;;20.20;68.30;;;;;;5035818;28;20031;-57
2022/09/24 10:40:29;;;;;;;8.25;2.03;;;20.20;68.10;;;;;;5041116;28;20528;-58
2022/09/24 10:42:56;;;;;;;5.28;1.80;;;20.30;68.10;;;;;;5039439;28;20025;-57
2022/09/24 10:45:22;;;;;;;7.88;1.65;;;20.30;68.00;;;;;;5037294;28;20040;-57
2022/09/24 10:47:51;;;;;;;11.25;2.00;;;20.30;67.90;;;;;;5039556;28;20039;-57
2022/09/24 10:50:34;;;;;;;42.72;4.45;;;20.30;67.80;;;;;;5038607;28;20033;-58
2022/09/24 10:53:01;;;;;;;11.50;2.70;;;20.30;67.30;;;;;;5041404;28;20516;-57
2022/09/24 10:55:30;;;;;;;12.48;2.10;;;20.30;67.30;;;;;;5041217;28;20108;-57
2022/09/24 10:57:59;;;;;;;12.23;2.40;;;20.30;66.90;;;;;;5045200;28;20021;-57
2022/09/24 11:00:45;;;;;;;11.48;2.47;;;20.30;67.00;;;;;;5038889;28;20045;-57
2022/09/24 11:03:24;;;;;;;10.32;1.95;;;20.30;66.80;;;;;;5043413;28;20170;-57
2022/09/24 11:05:54;;;;;;;8.52;2.00;;;20.30;66.60;;;;;;5035338;28;20036;-57
2022/09/24 11:08:41;;;;;;;9.95;2.33;;;20.30;66.50;;;;;;5036776;28;20040;-57
2022/09/24 11:11:32;;;;;;;8.65;1.77;;;20.40;66.20;;;;;;5042247;28;20032;-57
2022/09/24 11:14:04;;;;;;;11.82;1.88;;;20.40;65.60;;;;;;5034058;28;20085;-57
2022/09/24 11:16:48;;;;;;;14.32;1.98;;;20.40;64.70;;;;;;5044605;28;20024;-57
2022/09/24 11:19:32;;;;;;;11.18;1.90;;;20.40;64.20;;;;;;5034450;28;20120;-57
2022/09/24 11:22:05;;;;;;;14.50;2.33;;;20.40;65.30;;;;;;5049892;28;20608;-57
2022/09/24 11:24:34;;;;;;;8.90;1.70;;;20.50;66.20;;;;;;5046797;28;20502;-57
2022/09/24 11:27:13;;;;;;;8.73;1.95;;;20.50;65.20;;;;;;5048559;28;20037;-58
2022/09/24 11:29:42;;;;;;;11.45;1.98;;;20.60;65.10;;;;;;5048881;28;20030;-57
2022/09/24 11:32:17;;;;;;;11.05;1.88;;;20.60;65.00;;;;;;5048898;28;20123;-57
2022/09/24 11:34:51;;;;;;;9.70;2.08;;;20.60;64.90;;;;;;5046975;28;20028;-57
2022/09/24 11:38:02;;;;;;;10.00;1.70;;;20.70;65.00;;;;;;5046819;28;20033;-57
2022/09/24 11:41:02;;;;;;;12.25;2.40;;;20.70;64.90;;;;;;5007577;28;20081;-57
2022/09/24 11:43:51;;;;;;;14.07;2.22;;;20.80;64.80;;;;;;4940479;28;20036;-57
2022/09/24 11:46:38;;;;;;;11.50;2.05;;;20.70;64.70;;;;;;4929459;28;20031;-57
2022/09/24 11:49:07;;;;;;;10.90;2.22;;;20.80;64.50;;;;;;4944675;28;20051;-57
2022/09/24 11:51:44;;;;;;;9.23;2.08;;;20.80;64.40;;;;;;4939488;28;20043;-57
2022/09/24 11:54:28;;;;;;;11.02;1.95;;;20.80;64.40;;;;;;4945743;28;20492;-57
2022/09/24 11:57:04;;;;;;;6.20;1.90;;;20.80;64.30;;;;;;4942302;28;20051;-57
2022/09/24 11:59:32;;;;;;;10.73;2.08;;;20.90;64.30;;;;;;4926551;28;20544;-57
2022/09/24 12:02:03;;;;;;;8.07;1.92;;;20.90;64.20;;;;;;4930886;28;20042;-57
2022/09/24 12:04:35;;;;;;;9.32;2.10;;;20.90;64.10;;;;;;4933303;28;22081;-57
2022/09/24 12:07:30;;;;;;;8.95;2.22;;;21.00;64.40;;;;;;4943496;28;20160;-57
2022/09/24 12:10:06;;;;;;;9.40;2.28;;;21.00;64.10;;;;;;4945158;28;20047;-57
2022/09/24 12:12:37;;;;;;;9.70;2.38;;;21.10;64.10;;;;;;4918256;29;20028;-57
2022/09/24 12:15:12;;;;;;;9.57;2.25;;;21.10;64.10;;;;;;4932956;28;20512;-57
2022/09/24 12:17:44;;;;;;;9.30;2.20;;;21.20;64.20;;;;;;4960641;28;20047;-57
2022/09/24 12:20:27;;;;;;;9.23;1.90;;;21.20;64.00;;;;;;4997982;28;20044;-57
2022/09/24 12:23:03;;;;;;;8.57;1.83;;;21.30;64.00;;;;;;5046462;28;20021;-57
2022/09/24 12:25:32;;;;;;;6.88;1.92;;;21.30;63.90;;;;;;5029344;28;20521;-57
2022/09/24 12:27:58;;;;;;;6.65;1.77;;;21.30;63.80;;;;;;5046094;28;20032;-57
2022/09/24 12:33:59;;;;;;;7.00;1.83;;;21.40;63.60;;;;;;5049203;28;20500;-57
2022/09/24 12:36:30;;;;;;;7.40;1.70;;;21.50;63.50;;;;;;5047220;28;20512;-57
2022/09/24 12:39:01;;;;;;;8.75;1.95;;;21.60;63.50;;;;;;5047771;28;20500;-57
2022/09/24 12:41:31;;;;;;;9.52;1.90;;;21.60;63.30;;;;;;5030226;28;20116;-57
2022/09/24 12:44:05;;;;;;;7.50;1.67;;;21.70;63.20;;;;;;5047246;28;20139;-57
2022/09/24 12:46:47;;;;;;;8.33;2.00;;;21.70;64.10;;;;;;5046874;28;20025;-57
2022/09/24 12:49:25;;;;;;;6.40;1.63;;;21.80;63.10;;;;;;5046757;28;20975;-57
2022/09/24 12:51:58;;;;;;;7.00;1.70;;;21.70;62.70;;;;;;5046913;28;20032;-57
2022/09/24 12:54:27;;;;;;;6.70;1.70;;;21.80;62.70;;;;;;5046394;28;20079;-57
2022/09/24 12:57:44;;;;;;;7.15;1.90;;;21.90;62.70;;;;;;5047235;28;20032;-57
2022/09/24 13:00:41;;;;;;;6.05;1.80;;;21.90;62.50;;;;;;5020289;28;20057;-57
2022/09/24 13:03:26;;;;;;;9.32;1.85;;;21.90;62.40;;;;;;5000586;28;20734;-57
2022/09/24 13:05:54;;;;;;;6.55;1.48;;;22.00;62.50;;;;;;5025312;28;20705;-57
2022/09/24 13:08:19;;;;;;;6.43;1.45;;;22.00;62.20;;;;;;5013600;28;20116;-56
2022/09/24 13:10:58;;;;;;;5.20;1.55;;;22.00;62.20;;;;;;5016777;28;20157;-57
2022/09/24 13:13:30;;;;;;;7.35;1.60;;;22.00;62.20;;;;;;5015593;28;20030;-57
2022/09/24 13:16:02;;;;;;;7.05;1.73;;;22.10;62.10;;;;;;5006242;28;20029;-57
2022/09/24 13:18:28;;;;;;;9.27;1.85;;;22.10;61.90;;;;;;4999179;28;20069;-58